createdAt,value
2017-09-03T00:00:33.195Z,98245.92
2017-09-03T00:03:00.704Z,98243.79
2017-09-03T00:05:28.214Z,98244.83
2017-09-03T00:07:55.734Z,98238.69
2017-09-03T00:10:23.247Z,98230.74
2017-09-03T00:12:50.738Z,98236.04
2017-09-03T00:15:18.252Z,98235.56
2017-09-03T00:17:45.819Z,98236.47
2017-09-03T00:20:13.326Z,98233.77
2017-09-03T00:22:40.827Z,98236.25
2017-09-03T00:25:08.341Z,98239.47
2017-09-03T00:27:35.884Z,98239.67
2017-09-03T00:30:03.406Z,98240.52
2017-09-03T00:32:30.924Z,98243.82
2017-09-03T00:34:58.421Z,98245.95
2017-09-03T00:37:25.935Z,98251.58
2017-09-03T00:39:53.444Z,98248.31
2017-09-03T00:42:20.979Z,98248.37
2017-09-03T00:44:48.505Z,98241.78
2017-09-03T00:47:16.028Z,98239.44
2017-09-03T00:49:43.554Z,98245.38
2017-09-03T00:52:11.064Z,98244.41
2017-09-03T00:54:38.567Z,98235.95
2017-09-03T00:57:06.124Z,98237.22
2017-09-03T00:59:33.625Z,98236.46
2017-09-03T01:02:01.135Z,98232.60
2017-09-03T01:04:28.668Z,98232.80
2017-09-03T01:06:56.172Z,98231.58
2017-09-03T01:09:23.683Z,98227.64
2017-09-03T01:11:51.208Z,98226.23
2017-09-03T01:14:18.724Z,98230.91
2017-09-03T01:16:46.287Z,98228.52
2017-09-03T01:19:13.798Z,98224.27
2017-09-03T01:21:41.305Z,98216.87
2017-09-03T01:24:08.806Z,98214.70
2017-09-03T01:26:36.308Z,98211.16
2017-09-03T01:29:03.845Z,98216.75
2017-09-03T01:31:31.407Z,98222.91
2017-09-03T01:33:58.910Z,98220.91
2017-09-03T01:36:26.407Z,98216.91
2017-09-03T01:38:53.908Z,98217.67
2017-09-03T01:41:21.425Z,98211.76
2017-09-03T01:43:48.949Z,98210.86
2017-09-03T01:46:16.453Z,98214.40
2017-09-03T01:48:43.951Z,98213.11
2017-09-03T01:51:11.449Z,98211.48
2017-09-03T01:53:39.137Z,98210.95
2017-09-03T01:56:06.635Z,98207.56
2017-09-03T01:58:34.156Z,98207.33
2017-09-03T02:01:01.674Z,98210.05
2017-09-03T02:03:29.200Z,98211.96
2017-09-03T02:05:56.704Z,98210.07
2017-09-03T02:08:24.203Z,98204.44
2017-09-03T02:10:51.728Z,98212.98
2017-09-03T02:13:19.235Z,98210.00
2017-09-03T02:15:46.791Z,98215.70
2017-09-03T02:18:14.359Z,98208.84
2017-09-03T02:20:41.855Z,98218.51
2017-09-03T02:23:09.362Z,98209.53
2017-09-03T02:25:36.869Z,98211.62
2017-09-03T02:28:04.391Z,98215.64
2017-09-03T02:30:31.892Z,98212.69
2017-09-03T02:32:59.385Z,98212.97
2017-09-03T02:35:26.897Z,98219.02
2017-09-03T02:37:54.411Z,98218.23
2017-09-03T02:40:21.914Z,98226.16
2017-09-03T02:42:49.411Z,98220.51
2017-09-03T02:45:16.938Z,98223.58
2017-09-03T02:47:44.443Z,98215.17
2017-09-03T02:50:11.958Z,98220.87
2017-09-03T02:52:39.482Z,98222.88
2017-09-03T02:55:06.975Z,98222.64
2017-09-03T02:57:34.497Z,98225.23
2017-09-03T03:00:02.009Z,98223.11
2017-09-03T03:02:29.528Z,98227.55
2017-09-03T03:04:57.039Z,98226.20
2017-09-03T03:07:24.548Z,98222.68
2017-09-03T03:09:52.080Z,98229.81
2017-09-03T03:12:19.606Z,98230.54
2017-09-03T03:14:47.111Z,98231.39
2017-09-03T03:17:14.621Z,98227.09
2017-09-03T03:19:42.140Z,98227.77
2017-09-03T03:22:09.648Z,98225.24
2017-09-03T03:24:37.150Z,98221.22
2017-09-03T03:27:04.654Z,98219.34
2017-09-03T03:29:32.168Z,98218.02
2017-09-03T03:31:59.677Z,98220.61
2017-09-03T03:34:27.177Z,98214.98
2017-09-03T03:36:54.944Z,98215.41
2017-09-03T03:39:22.449Z,98220.40
2017-09-03T03:41:49.973Z,98221.80
2017-09-03T03:44:17.496Z,98219.94
2017-09-03T03:46:44.998Z,98222.63
2017-09-03T03:49:12.505Z,98221.41
2017-09-03T03:51:40.027Z,98222.11
2017-09-03T03:54:07.542Z,98219.03
2017-09-03T03:56:35.052Z,98216.47
2017-09-03T03:59:02.563Z,98219.72
2017-09-03T04:01:30.079Z,98220.08
2017-09-03T04:03:57.591Z,98223.58
2017-09-03T04:06:25.098Z,98210.92
2017-09-03T04:08:52.636Z,98223.56
2017-09-03T04:11:20.154Z,98222.86
2017-09-03T04:13:47.660Z,98222.02
2017-09-03T04:16:15.163Z,98227.35
2017-09-03T04:18:42.664Z,98223.46
2017-09-03T04:21:10.189Z,98227.34
2017-09-03T04:23:37.686Z,98228.84
2017-09-03T04:26:05.208Z,98232.06
2017-09-03T04:28:32.710Z,98226.38
2017-09-03T04:31:00.218Z,98230.35
2017-09-03T04:33:27.716Z,98225.75
2017-09-03T04:35:55.346Z,98220.20
2017-09-03T04:38:22.851Z,98228.15
2017-09-03T04:40:50.362Z,98229.85
2017-09-03T04:43:17.873Z,98220.05
2017-09-03T04:45:45.380Z,98222.17
2017-09-03T04:48:12.902Z,98220.70
2017-09-03T04:50:40.406Z,98219.76
2017-09-03T04:53:07.903Z,98219.77
2017-09-03T04:55:35.407Z,98214.38
2017-09-03T04:58:02.946Z,98218.55
2017-09-03T05:00:30.462Z,98216.57
2017-09-03T05:02:57.981Z,98220.09
2017-09-03T05:05:25.484Z,98218.19
2017-09-03T05:07:52.982Z,98218.88
2017-09-03T05:10:20.488Z,98220.91
2017-09-03T05:12:47.984Z,98227.61
2017-09-03T05:15:15.487Z,98229.16
2017-09-03T05:17:43.007Z,98229.59
2017-09-03T05:20:10.530Z,98225.91
2017-09-03T05:22:38.039Z,98231.59
2017-09-03T05:25:05.531Z,98225.95
2017-09-03T05:27:33.039Z,98224.28
2017-09-03T05:30:00.538Z,98223.18
2017-09-03T05:32:28.059Z,98219.26
2017-09-03T05:34:55.584Z,98228.55
2017-09-03T05:37:23.085Z,98229.07
2017-09-03T05:39:50.596Z,98226.85
2017-09-03T05:42:18.104Z,98232.33
2017-09-03T05:44:45.619Z,98235.75
2017-09-03T05:47:13.128Z,98231.38
2017-09-03T05:49:40.635Z,98239.09
2017-09-03T05:52:08.151Z,98234.63
2017-09-03T05:54:35.687Z,98233.31
2017-09-03T05:57:03.187Z,98239.36
2017-09-03T05:59:30.715Z,98232.63
2017-09-03T06:01:58.231Z,98230.39
2017-09-03T06:04:25.736Z,98227.65
2017-09-03T06:06:53.237Z,98229.06
2017-09-03T06:09:20.748Z,98232.41
2017-09-03T06:11:48.267Z,98239.72
2017-09-03T06:14:15.780Z,98232.11
2017-09-03T06:16:43.298Z,98232.27
2017-09-03T06:19:10.804Z,98232.42
2017-09-03T06:21:38.318Z,98230.70
2017-09-03T06:24:05.844Z,98235.10
2017-09-03T06:26:33.372Z,98233.29
2017-09-03T06:29:00.919Z,98227.95
2017-09-03T06:31:28.757Z,98227.83
2017-09-03T06:33:56.259Z,98229.17
2017-09-03T06:36:23.791Z,98229.02
2017-09-03T06:38:51.311Z,98228.28
2017-09-03T06:41:18.814Z,98227.89
2017-09-03T06:43:46.323Z,98232.57
2017-09-03T06:46:13.860Z,98228.40
2017-09-03T06:48:41.368Z,98222.95
2017-09-03T06:51:08.878Z,98229.73
2017-09-03T06:53:36.407Z,98221.28
2017-09-03T06:56:03.930Z,98224.11
2017-09-03T06:58:31.448Z,98226.25
2017-09-03T07:00:58.966Z,98220.75
2017-09-03T07:03:26.475Z,98216.73
2017-09-03T07:05:53.984Z,98219.36
2017-09-03T07:08:21.499Z,98213.47
2017-09-03T07:10:49.006Z,98208.53
2017-09-03T07:13:16.508Z,98215.26
2017-09-03T07:15:44.026Z,98216.77
2017-09-03T07:18:11.548Z,98215.03
2017-09-03T07:20:39.079Z,98211.05
2017-09-03T07:23:06.582Z,98212.00
2017-09-03T07:25:34.111Z,98212.00
2017-09-03T07:28:01.631Z,98214.09
2017-09-03T07:30:29.156Z,98217.16
2017-09-03T07:32:56.683Z,98215.59
2017-09-03T07:35:24.199Z,98214.27
2017-09-03T07:37:51.725Z,98207.42
2017-09-03T07:40:19.226Z,98205.13
2017-09-03T07:42:46.761Z,98208.98
2017-09-03T07:45:14.272Z,98208.80
2017-09-03T07:47:41.795Z,98215.91
2017-09-03T07:50:09.318Z,98214.31
2017-09-03T07:52:36.850Z,98211.63
2017-09-03T07:55:04.397Z,98216.33
2017-09-03T07:57:31.931Z,98209.24
2017-09-03T07:59:59.790Z,98212.02
2017-09-03T08:02:27.370Z,98210.00
2017-09-03T08:04:54.871Z,98213.42
2017-09-03T08:07:22.383Z,98213.17
2017-09-03T08:09:49.897Z,98205.64
2017-09-03T08:12:17.416Z,98215.14
2017-09-03T08:14:44.948Z,98212.02
2017-09-03T08:17:12.493Z,98212.25
2017-09-03T08:19:39.999Z,98218.30
2017-09-03T08:22:07.544Z,98215.63
2017-09-03T08:24:35.057Z,98218.20
2017-09-03T08:27:02.584Z,98220.62
2017-09-03T08:29:30.107Z,98212.40
2017-09-03T08:31:57.630Z,98213.92
2017-09-03T08:34:25.182Z,98207.31
2017-09-03T08:36:52.702Z,98205.22
2017-09-03T08:39:20.227Z,98208.67
2017-09-03T08:41:47.743Z,98208.50
2017-09-03T08:44:15.268Z,98204.48
2017-09-03T08:46:42.858Z,98209.77
2017-09-03T08:49:10.378Z,98208.01
2017-09-03T08:51:38.109Z,98203.00
2017-09-03T08:54:05.617Z,98203.66
2017-09-03T08:56:33.123Z,98208.12
2017-09-03T08:59:00.653Z,98200.52
2017-09-03T09:01:28.204Z,98207.02
2017-09-03T09:03:55.721Z,98202.50
2017-09-03T09:06:23.262Z,98207.45
2017-09-03T09:08:50.930Z,98211.64
2017-09-03T09:11:18.456Z,98203.27
2017-09-03T09:13:45.999Z,98204.13
2017-09-03T09:16:13.529Z,98205.70
2017-09-03T09:18:41.049Z,98201.73
2017-09-03T09:21:08.692Z,98202.28
2017-09-03T09:23:36.352Z,98198.50
2017-09-03T09:26:03.907Z,98202.66
2017-09-03T09:28:31.432Z,98195.52
2017-09-03T09:30:58.989Z,98189.72
2017-09-03T09:33:26.528Z,98189.80
2017-09-03T09:35:54.152Z,98188.73
2017-09-03T09:38:22.004Z,98191.10
2017-09-03T09:40:49.518Z,98196.83
2017-09-03T09:43:17.034Z,98187.24
2017-09-03T09:45:44.540Z,98191.73
2017-09-03T09:48:12.060Z,98190.88
2017-09-03T09:50:39.705Z,98186.80
2017-09-03T09:53:07.284Z,98187.05
2017-09-03T09:55:34.791Z,98186.11
2017-09-03T09:58:02.320Z,98190.58
2017-09-03T10:00:29.876Z,98185.66
2017-09-03T10:02:57.398Z,98183.84
2017-09-03T10:05:24.927Z,98179.43
2017-09-03T10:07:52.445Z,98181.44
2017-09-03T10:10:19.977Z,98182.69
2017-09-03T10:12:47.510Z,98176.56
2017-09-03T10:15:15.023Z,98176.31
2017-09-03T10:17:42.532Z,98166.11
2017-09-03T10:20:10.043Z,98173.88
2017-09-03T10:22:37.573Z,98162.78
2017-09-03T10:25:05.097Z,98169.30
2017-09-03T10:27:32.620Z,98164.63
2017-09-03T10:30:00.147Z,98162.92
2017-09-03T10:32:27.673Z,98162.80
2017-09-03T10:34:55.203Z,98157.13
2017-09-03T10:37:22.872Z,98152.45
2017-09-03T10:39:50.432Z,98151.13
2017-09-03T10:42:17.967Z,98151.33
2017-09-03T10:44:45.526Z,98154.42
2017-09-03T10:47:13.079Z,98152.25
2017-09-03T10:49:40.594Z,98146.20
2017-09-03T10:52:08.166Z,98136.01
2017-09-03T10:54:35.720Z,98132.48
2017-09-03T10:57:03.242Z,98127.31
2017-09-03T10:59:30.787Z,98128.19
2017-09-03T11:01:58.319Z,98122.09
2017-09-03T11:04:25.848Z,98118.95
2017-09-03T11:06:53.354Z,98119.86
2017-09-03T11:09:20.864Z,98116.16
2017-09-03T11:11:48.400Z,98116.06
2017-09-03T11:14:15.930Z,98109.26
2017-09-03T11:16:43.450Z,98103.92
2017-09-03T11:19:10.971Z,98100.50
2017-09-03T11:21:38.529Z,98100.12
2017-09-03T11:24:06.056Z,98112.01
2017-09-03T11:26:33.588Z,98108.14
2017-09-03T11:29:01.116Z,98101.82
2017-09-03T11:31:28.652Z,98098.36
2017-09-03T11:33:56.181Z,98092.83
2017-09-03T11:36:23.709Z,98096.70
2017-09-03T11:38:51.234Z,98090.57
2017-09-03T11:41:18.926Z,98092.66
2017-09-03T11:43:46.443Z,98088.17
2017-09-03T11:46:13.947Z,98090.16
2017-09-03T11:48:41.497Z,98090.19
2017-09-03T11:51:09.048Z,98086.81
2017-09-03T11:53:36.563Z,98086.02
2017-09-03T11:56:04.086Z,98089.55
2017-09-03T11:58:31.606Z,98083.74
2017-09-03T12:00:59.171Z,98072.66
2017-09-03T12:03:26.681Z,98077.39
2017-09-03T12:05:54.213Z,98074.69
2017-09-03T12:08:21.768Z,98070.17
2017-09-03T12:10:49.284Z,98063.74
2017-09-03T12:13:16.800Z,98062.63
2017-09-03T12:15:44.321Z,98054.89
2017-09-03T12:18:11.848Z,98045.67
2017-09-03T12:20:39.358Z,98040.16
2017-09-03T12:23:06.886Z,98041.87
2017-09-03T12:25:34.423Z,98037.48
2017-09-03T12:28:02.006Z,98036.19
2017-09-03T12:30:29.527Z,98035.80
2017-09-03T12:32:57.048Z,98037.89
2017-09-03T12:35:24.605Z,98026.45
2017-09-03T12:37:52.121Z,98026.90
2017-09-03T12:40:19.725Z,98029.25
2017-09-03T12:42:47.288Z,98020.25
2017-09-03T12:45:14.805Z,98024.17
2017-09-03T12:47:42.343Z,98025.47
2017-09-03T12:50:09.931Z,98024.20
2017-09-03T12:52:37.471Z,98021.84
2017-09-03T12:55:04.977Z,98013.92
2017-09-03T12:57:32.501Z,98008.61
2017-09-03T13:00:00.209Z,98010.52
2017-09-03T13:02:27.717Z,98005.97
2017-09-03T13:04:55.243Z,98004.82
2017-09-03T13:07:22.772Z,97997.98
2017-09-03T13:09:50.300Z,97999.09
2017-09-03T13:12:17.824Z,97998.05
2017-09-03T13:14:45.366Z,97993.95
2017-09-03T13:17:12.885Z,97989.86
2017-09-03T13:19:40.390Z,97994.17
2017-09-03T13:22:07.927Z,97987.64
2017-09-03T13:24:35.450Z,97992.06
2017-09-03T13:27:03.695Z,97988.41
2017-09-03T13:29:31.209Z,97989.42
2017-09-03T13:31:58.720Z,97987.23
2017-09-03T13:34:26.239Z,97989.53
2017-09-03T13:36:53.783Z,97982.36
2017-09-03T13:39:21.306Z,97988.69
2017-09-03T13:41:48.902Z,97983.06
2017-09-03T13:44:16.410Z,97985.27
2017-09-03T13:46:43.924Z,97984.52
2017-09-03T13:49:11.456Z,97975.05
2017-09-03T13:51:39.003Z,97979.23
2017-09-03T13:54:06.547Z,97973.75
2017-09-03T13:56:34.090Z,97970.62
2017-09-03T13:59:01.617Z,97969.69
2017-09-03T14:01:29.144Z,97969.37
2017-09-03T14:03:56.700Z,97969.18
2017-09-03T14:06:24.207Z,97963.67
2017-09-03T14:08:51.757Z,97962.48
2017-09-03T14:11:19.410Z,97958.17
2017-09-03T14:13:46.932Z,97951.67
2017-09-03T14:16:14.459Z,97956.10
2017-09-03T14:18:41.994Z,97953.00
2017-09-03T14:21:09.523Z,97950.81
2017-09-03T14:23:37.027Z,97939.47
2017-09-03T14:26:04.611Z,97938.14
2017-09-03T14:28:32.137Z,97935.47
2017-09-03T14:30:59.681Z,97939.47
2017-09-03T14:33:27.189Z,97939.06
2017-09-03T14:35:54.711Z,97938.22
2017-09-03T14:38:22.248Z,97937.67
2017-09-03T14:40:49.791Z,97932.62
2017-09-03T14:43:17.293Z,97937.15
2017-09-03T14:45:44.803Z,97941.56
2017-09-03T14:48:12.337Z,97940.75
2017-09-03T14:50:39.865Z,97935.23
2017-09-03T14:53:07.372Z,97935.64
2017-09-03T14:55:34.921Z,97936.55
2017-09-03T14:58:02.460Z,97937.75
2017-09-03T15:00:30.004Z,97930.55
2017-09-03T15:02:57.624Z,97929.12
2017-09-03T15:05:26.129Z,97926.23
2017-09-03T15:07:53.660Z,97929.48
2017-09-03T15:10:21.221Z,97932.45
2017-09-03T15:12:48.753Z,97923.18
2017-09-03T15:15:16.252Z,97927.45
2017-09-03T15:17:43.807Z,97924.89
2017-09-03T15:20:11.354Z,97926.47
2017-09-03T15:22:38.879Z,97928.94
2017-09-03T15:25:06.392Z,97936.20
2017-09-03T15:27:33.912Z,97931.83
2017-09-03T15:30:01.426Z,97928.12
2017-09-03T15:32:28.966Z,97926.14
2017-09-03T15:34:56.505Z,97925.82
2017-09-03T15:37:24.015Z,97923.60
2017-09-03T15:39:51.563Z,97930.20
2017-09-03T15:42:19.076Z,97924.88
2017-09-03T15:44:46.647Z,97931.57
2017-09-03T15:47:14.148Z,97926.88
2017-09-03T15:49:41.716Z,97924.20
2017-09-03T15:52:09.252Z,97921.54
2017-09-03T15:54:36.796Z,97921.50
2017-09-03T15:57:04.331Z,97926.50
2017-09-03T15:59:31.847Z,97927.85
2017-09-03T16:01:59.369Z,97923.97
2017-09-03T16:04:26.899Z,97923.66
2017-09-03T16:06:54.422Z,97916.14
2017-09-03T16:09:21.935Z,97919.82
2017-09-03T16:11:49.486Z,97918.92
2017-09-03T16:14:17.099Z,97919.22
2017-09-03T16:16:44.647Z,97913.34
2017-09-03T16:19:12.203Z,97916.89
2017-09-03T16:21:39.749Z,97915.67
2017-09-03T16:24:07.279Z,97910.10
2017-09-03T16:26:34.945Z,97908.40
2017-09-03T16:29:02.469Z,97906.72
2017-09-03T16:31:29.995Z,97903.58
2017-09-03T16:33:57.528Z,97898.80
2017-09-03T16:36:25.035Z,97910.03
2017-09-03T16:38:52.554Z,97905.16
2017-09-03T16:41:20.074Z,97910.64
2017-09-03T16:43:47.597Z,97912.86
2017-09-03T16:46:15.119Z,97906.94
2017-09-03T16:48:42.655Z,97910.73
2017-09-03T16:51:10.178Z,97908.92
2017-09-03T16:53:37.748Z,97905.52
2017-09-03T16:56:05.266Z,97896.40
2017-09-03T16:58:32.891Z,97899.53
2017-09-03T17:01:00.428Z,97908.22
2017-09-03T17:03:27.963Z,97905.27
2017-09-03T17:05:55.485Z,97903.20
2017-09-03T17:08:23.041Z,97899.84
2017-09-03T17:10:50.895Z,97892.89
2017-09-03T17:13:18.415Z,97896.03
2017-09-03T17:15:45.948Z,97892.38
2017-09-03T17:18:13.461Z,97896.30
2017-09-03T17:20:41.027Z,97901.46
2017-09-03T17:23:08.616Z,97897.69
2017-09-03T17:25:36.154Z,97896.67
2017-09-03T17:28:03.800Z,97902.79
2017-09-03T17:30:31.338Z,97898.34
2017-09-03T17:32:58.903Z,97896.89
2017-09-03T17:35:36.372Z,97898.12
2017-09-03T17:38:03.899Z,97898.35
2017-09-03T17:43:34.456Z,97905.43
2017-09-03T17:46:01.982Z,97907.75
2017-09-03T17:48:29.504Z,97903.55
2017-09-03T17:50:57.019Z,97910.27
2017-09-03T17:53:24.589Z,97908.40
2017-09-03T17:55:52.115Z,97911.09
2017-09-03T17:58:19.674Z,97904.76
2017-09-03T18:00:47.245Z,97903.05
2017-09-03T18:03:14.791Z,97907.82
2017-09-03T18:05:42.312Z,97910.19
2017-09-03T18:08:09.851Z,97913.36
2017-09-03T18:10:37.388Z,97918.05
2017-09-03T18:13:04.971Z,97916.25
2017-09-03T18:15:32.508Z,97923.93
2017-09-03T18:18:00.080Z,97920.83
2017-09-03T18:20:30.138Z,97920.56
2017-09-03T18:22:57.658Z,97922.97
2017-09-03T18:25:25.231Z,97923.38
2017-09-03T18:27:52.830Z,97921.94
2017-09-03T18:30:21.425Z,97920.28
2017-09-03T18:32:48.968Z,97924.73
2017-09-03T18:35:16.522Z,97921.73
2017-09-03T18:37:45.041Z,97925.63
2017-09-03T18:43:18.000Z,97927.34
2017-09-03T18:45:46.474Z,97930.46
2017-09-03T18:48:14.019Z,97933.16
2017-09-03T18:50:41.560Z,97939.06
2017-09-03T18:56:13.911Z,97943.75
2017-09-03T18:58:41.438Z,97946.78
2017-09-03T19:01:08.992Z,97945.15
2017-09-03T19:03:38.912Z,97952.08
2017-09-03T19:06:07.275Z,97946.96
2017-09-03T19:08:34.850Z,97946.49
2017-09-03T19:11:02.367Z,97950.48
2017-09-03T19:13:29.939Z,97952.79
2017-09-03T19:15:57.480Z,97946.80
2017-09-03T19:18:25.064Z,97953.48
2017-09-03T19:20:52.613Z,97950.59
2017-09-03T19:23:20.158Z,97953.82
2017-09-03T19:25:47.692Z,97950.46
2017-09-03T19:28:15.220Z,97952.81
2017-09-03T19:30:42.757Z,97954.80
2017-09-03T19:33:10.292Z,97959.09
2017-09-03T19:35:37.818Z,97955.72
2017-09-03T19:38:06.774Z,97953.08
2017-09-03T19:41:00.896Z,97959.61
2017-09-03T19:43:28.670Z,97960.98
2017-09-03T19:45:56.204Z,97960.80
2017-09-03T19:48:23.725Z,97966.78
2017-09-03T19:50:51.273Z,97964.94
2017-09-03T19:53:18.812Z,97967.80
2017-09-03T19:55:46.335Z,97965.39
2017-09-03T19:58:13.927Z,97963.78
2017-09-03T20:00:41.559Z,97969.14
2017-09-03T20:03:09.092Z,97962.86
2017-09-03T20:05:36.622Z,97964.34
2017-09-03T20:08:04.181Z,97962.44
2017-09-03T20:10:31.742Z,97958.47
2017-09-03T20:12:59.400Z,97962.20
2017-09-03T20:15:26.936Z,97963.09
2017-09-03T20:17:54.470Z,97959.30
2017-09-03T20:20:21.991Z,97955.28
2017-09-03T20:22:49.522Z,97964.23
2017-09-03T20:25:17.048Z,97965.39
2017-09-03T20:27:44.588Z,97964.38
2017-09-03T20:30:12.122Z,97968.20
2017-09-03T20:32:39.644Z,97966.73
2017-09-03T20:35:07.220Z,97970.25
2017-09-03T20:37:34.728Z,97971.28
2017-09-03T20:40:02.259Z,97965.11
2017-09-03T20:42:29.904Z,97964.62
2017-09-03T20:44:57.442Z,97974.70
2017-09-03T20:47:24.968Z,97972.84
2017-09-03T20:49:52.501Z,97971.50
2017-09-03T20:52:20.026Z,97967.74
2017-09-03T20:54:47.538Z,97972.45
2017-09-03T20:57:15.063Z,97973.70
2017-09-03T20:59:42.637Z,97973.28
2017-09-03T21:02:10.174Z,97984.94
2017-09-03T21:04:37.864Z,97980.54
2017-09-03T21:07:05.443Z,97979.92
2017-09-03T21:09:32.997Z,97982.58
2017-09-03T21:12:00.515Z,97988.34
2017-09-03T21:14:28.039Z,97986.37
2017-09-03T21:16:55.572Z,97986.88
2017-09-03T21:19:23.233Z,97991.00
2017-09-03T21:21:50.786Z,97986.55
2017-09-03T21:24:18.350Z,97985.53
2017-09-03T21:26:45.883Z,97986.02
2017-09-03T21:29:13.448Z,97981.25
2017-09-03T21:31:40.965Z,97986.92
2017-09-03T21:34:08.526Z,97977.88
2017-09-03T21:36:36.034Z,97980.73
2017-09-03T21:39:03.556Z,97984.17
2017-09-03T21:41:31.075Z,97977.92
2017-09-03T21:43:58.586Z,97972.36
2017-09-03T21:46:26.107Z,97975.36
2017-09-03T21:48:53.679Z,97972.05
2017-09-03T21:51:21.209Z,97979.36
2017-09-03T21:53:48.730Z,97970.42
2017-09-03T21:56:16.234Z,97970.80
2017-09-03T21:58:43.737Z,97973.63
2017-09-03T22:01:11.290Z,97971.20
2017-09-03T22:03:38.812Z,97969.19
2017-09-03T22:06:06.316Z,97972.20
2017-09-03T22:08:33.828Z,97976.44
2017-09-03T22:11:01.361Z,97972.05
2017-09-03T22:13:28.887Z,97963.38
2017-09-03T22:15:56.476Z,97972.27
2017-09-03T22:18:23.997Z,97964.05
2017-09-03T22:20:51.498Z,97960.07
2017-09-03T22:23:19.011Z,97963.98
2017-09-03T22:25:46.531Z,97955.25
2017-09-03T22:28:14.059Z,97957.77
2017-09-03T22:30:41.562Z,97955.91
2017-09-03T22:33:09.100Z,97953.77
2017-09-03T22:35:36.628Z,97947.41
2017-09-03T22:38:04.128Z,97952.91
2017-09-03T22:40:31.668Z,97955.42
2017-09-03T22:42:59.183Z,97956.86
2017-09-03T22:45:26.688Z,97956.02
2017-09-03T22:47:54.260Z,97952.36
2017-09-03T22:50:21.759Z,97957.94
2017-09-03T22:52:49.275Z,97956.45
2017-09-03T22:55:16.787Z,97963.19
2017-09-03T22:57:44.332Z,97950.04
2017-09-03T23:00:11.851Z,97956.03
2017-09-03T23:02:39.380Z,97958.89
2017-09-03T23:05:06.906Z,97962.59
2017-09-03T23:07:34.407Z,97961.10
2017-09-03T23:10:01.918Z,97968.63
2017-09-03T23:12:29.472Z,97962.19
2017-09-03T23:14:56.979Z,97961.52
2017-09-03T23:17:24.478Z,97961.77
2017-09-03T23:19:52.003Z,97965.30
2017-09-03T23:22:19.515Z,97962.12
2017-09-03T23:24:47.039Z,97958.53
2017-09-03T23:27:14.592Z,97960.84
2017-09-03T23:29:42.110Z,97961.83
2017-09-03T23:32:09.632Z,97959.90
2017-09-03T23:34:37.148Z,97960.78
2017-09-03T23:37:04.647Z,97957.48
2017-09-03T23:39:32.172Z,97956.97
2017-09-03T23:41:59.672Z,97949.08
2017-09-03T23:44:27.210Z,97954.39
2017-09-03T23:46:54.717Z,97948.89
2017-09-03T23:49:22.245Z,97946.59
2017-09-03T23:51:49.769Z,97945.58
2017-09-03T23:54:17.278Z,97948.64
2017-09-03T23:56:44.786Z,97951.45
2017-09-03T23:59:12.287Z,97954.48
